createdAt,value
2023-02-13T00:01:15.041Z,75.23
2023-02-13T00:03:43.303Z,75.62
2023-02-13T00:06:12.845Z,75.25
2023-02-13T00:08:40.946Z,75.26
2023-02-13T00:11:09.117Z,75.40
2023-02-13T00:13:37.305Z,75.38
2023-02-13T00:16:06.854Z,75.25
2023-02-13T00:18:37.233Z,75.33
2023-02-13T00:21:07.228Z,75.39
2023-02-13T00:23:37.827Z,75.67
2023-02-13T00:26:09.089Z,75.74
2023-02-13T00:28:37.583Z,75.79
2023-02-13T00:31:07.484Z,75.92
2023-02-13T00:33:37.327Z,75.88
2023-02-13T00:36:08.066Z,76.18
2023-02-13T00:38:38.012Z,76.34
2023-02-13T00:41:06.736Z,76.43
2023-02-13T00:43:35.375Z,76.14
2023-02-13T00:46:03.658Z,76.59
2023-02-13T00:48:35.087Z,77.01
2023-02-13T00:51:04.052Z,77.26
2023-02-13T00:53:32.549Z,77.39
2023-02-13T00:56:02.473Z,77.20
2023-02-13T00:58:30.767Z,77.63
2023-02-13T01:00:59.267Z,77.38
2023-02-13T01:03:28.143Z,77.35
2023-02-13T01:05:58.289Z,76.99
2023-02-13T01:08:28.456Z,76.76
2023-02-13T01:10:57.478Z,77.37
2023-02-13T01:13:27.823Z,77.38
2023-02-13T01:15:56.009Z,77.18
2023-02-13T01:18:24.472Z,77.35
2023-02-13T01:21:01.149Z,77.89
2023-02-13T01:23:32.575Z,78.23
2023-02-13T01:26:01.330Z,78.23
2023-02-13T01:28:30.836Z,78.33
2023-02-13T01:31:00.200Z,78.59
2023-02-13T01:33:30.541Z,78.84
2023-02-13T01:36:00.373Z,79.80
2023-02-13T01:38:28.544Z,80.12
2023-02-13T01:40:56.913Z,80.00
2023-02-13T01:43:26.099Z,80.11
2023-02-13T01:45:58.797Z,81.01
2023-02-13T01:48:30.395Z,80.90
2023-02-13T01:51:04.128Z,80.56
2023-02-13T01:53:37.179Z,81.13
2023-02-13T01:56:12.056Z,81.13
2023-02-13T01:58:43.875Z,81.25
2023-02-13T02:01:13.622Z,80.91
2023-02-13T02:03:46.734Z,81.40
2023-02-13T02:06:21.710Z,81.22
2023-02-13T02:08:51.160Z,81.22
2023-02-13T02:11:27.102Z,82.12
2023-02-13T02:13:56.151Z,82.14
2023-02-13T02:16:27.432Z,82.24
2023-02-13T02:18:56.510Z,82.35
2023-02-13T02:22:00.734Z,82.23
2023-02-13T02:25:01.388Z,81.95
2023-02-13T02:28:07.417Z,82.34
2023-02-13T02:30:59.244Z,82.73
2023-02-13T02:33:39.547Z,82.30
2023-02-13T02:36:23.735Z,82.38
2023-02-13T02:39:08.473Z,82.04
2023-02-13T02:41:46.906Z,81.94
2023-02-13T02:44:33.863Z,82.09
2023-02-13T02:47:41.984Z,81.97
2023-02-13T02:50:24.724Z,81.64
2023-02-13T02:53:07.863Z,81.64
2023-02-13T02:55:42.572Z,81.46
2023-02-13T02:58:35.707Z,81.66
2023-02-13T03:01:24.504Z,81.48
2023-02-13T03:04:11.101Z,80.95
2023-02-13T03:06:45.943Z,80.94
2023-02-13T03:09:34.653Z,80.67
2023-02-13T03:12:21.298Z,80.49
2023-02-13T03:14:50.108Z,80.59
2023-02-13T03:17:37.815Z,80.50
2023-02-13T03:20:53.606Z,80.23
2023-02-13T03:23:33.856Z,80.76
2023-02-13T03:26:18.278Z,81.08
2023-02-13T03:29:11.253Z,81.80
2023-02-13T03:31:50.847Z,81.90
2023-02-13T03:34:23.423Z,81.46
2023-02-13T03:37:18.146Z,81.87
2023-02-13T03:39:57.954Z,82.00
2023-02-13T03:42:33.724Z,82.33
2023-02-13T03:45:25.052Z,81.36
2023-02-13T03:47:57.982Z,81.06
2023-02-13T03:50:27.276Z,80.58
2023-02-13T03:53:00.666Z,80.03
2023-02-13T03:55:55.319Z,79.35
2023-02-13T03:58:43.978Z,79.67
2023-02-13T04:01:16.818Z,79.34
2023-02-13T04:03:53.143Z,79.47
2023-02-13T04:06:23.394Z,79.37
2023-02-13T04:08:52.733Z,79.83
2023-02-13T04:11:29.558Z,80.13
2023-02-13T04:14:00.268Z,80.07
2023-02-13T04:16:33.494Z,79.99
2023-02-13T04:19:03.010Z,80.12
2023-02-13T04:21:35.696Z,80.42
2023-02-13T04:24:03.791Z,80.56
2023-02-13T04:26:37.674Z,80.01
2023-02-13T04:29:06.151Z,79.88
2023-02-13T04:31:34.664Z,80.17
2023-02-13T04:34:02.895Z,80.20
2023-02-13T04:36:31.466Z,80.08
2023-02-13T04:38:59.640Z,80.03
2023-02-13T04:41:27.789Z,80.18
2023-02-13T04:43:57.403Z,79.71
2023-02-13T04:46:25.730Z,80.00
2023-02-13T04:48:53.901Z,79.99
2023-02-13T04:51:22.506Z,80.14
2023-02-13T04:53:50.644Z,80.13
2023-02-13T04:56:19.979Z,80.00
2023-02-13T04:58:48.255Z,80.02
2023-02-13T05:01:19.379Z,80.73
2023-02-13T05:03:47.619Z,80.40
2023-02-13T05:06:15.791Z,80.50
2023-02-13T05:08:44.316Z,80.18
2023-02-13T05:11:12.654Z,80.43
2023-02-13T05:13:40.735Z,80.72
2023-02-13T05:16:09.062Z,80.41
2023-02-13T05:18:38.723Z,80.34
2023-02-13T05:21:26.784Z,80.56
2023-02-13T05:23:54.958Z,80.62
2023-02-13T05:26:23.083Z,80.47
2023-02-13T05:29:08.533Z,80.02
2023-02-13T05:31:36.839Z,78.62
2023-02-13T05:34:06.817Z,77.54
2023-02-13T05:36:34.897Z,75.26
2023-02-13T05:39:04.401Z,74.11
2023-02-13T05:41:32.477Z,73.50
2023-02-13T05:44:00.626Z,72.41
2023-02-13T05:46:28.950Z,72.97
2023-02-13T05:48:57.234Z,73.86
2023-02-13T05:51:26.997Z,74.04
2023-02-13T05:53:55.083Z,71.91
2023-02-13T05:56:23.362Z,71.78
2023-02-13T05:58:53.592Z,71.51
2023-02-13T06:01:22.209Z,70.35
2023-02-13T06:03:50.424Z,68.85
2023-02-13T06:06:19.039Z,67.38
2023-02-13T06:08:48.617Z,65.61
2023-02-13T06:11:16.779Z,65.03
2023-02-13T06:13:44.944Z,64.65
2023-02-13T06:16:13.852Z,65.00
2023-02-13T06:18:42.486Z,64.84
2023-02-13T06:21:10.818Z,64.96
2023-02-13T06:23:39.529Z,64.89
2023-02-13T06:26:10.492Z,64.98
2023-02-13T06:28:38.970Z,66.31
2023-02-13T06:31:07.289Z,66.43
2023-02-13T06:33:35.611Z,66.49
2023-02-13T06:36:03.764Z,67.23
2023-02-13T06:38:32.278Z,66.37
2023-02-13T06:41:03.060Z,65.66
2023-02-13T06:43:32.686Z,65.73
2023-02-13T06:46:00.999Z,64.94
2023-02-13T06:48:29.075Z,64.60
2023-02-13T06:50:57.581Z,64.21
2023-02-13T06:53:25.997Z,64.73
2023-02-13T06:55:54.438Z,64.11
2023-02-13T06:58:23.619Z,63.62
2023-02-13T07:00:54.294Z,63.09
2023-02-13T07:03:22.645Z,63.29
2023-02-13T07:05:52.149Z,62.72
2023-02-13T07:08:20.801Z,62.64
2023-02-13T07:10:49.209Z,63.12
2023-02-13T07:13:17.314Z,62.46
2023-02-13T07:15:45.934Z,61.78
2023-02-13T07:18:15.560Z,60.41
2023-02-13T07:20:43.695Z,59.61
2023-02-13T07:23:12.089Z,58.48
2023-02-13T07:25:40.272Z,61.23
2023-02-13T07:28:08.409Z,60.75
2023-02-13T07:30:36.715Z,58.69
2023-02-13T07:33:06.661Z,55.54
2023-02-13T07:35:37.784Z,56.04
2023-02-13T07:38:06.563Z,55.51
2023-02-13T07:40:34.694Z,55.17
2023-02-13T07:43:03.180Z,54.77
2023-02-13T07:45:32.157Z,53.04
2023-02-13T07:48:00.965Z,54.70
2023-02-13T07:50:29.575Z,54.49
2023-02-13T07:53:00.581Z,54.38
2023-02-13T07:55:28.907Z,53.36
2023-02-13T07:57:57.376Z,51.38
2023-02-13T08:00:25.582Z,52.41
2023-02-13T08:02:53.874Z,52.06
2023-02-13T08:05:22.014Z,50.74
2023-02-13T08:07:50.154Z,49.09
2023-02-13T08:10:37.676Z,50.11
2023-02-13T08:13:06.790Z,49.55
2023-02-13T08:15:34.937Z,49.32
2023-02-13T08:18:03.263Z,48.67
2023-02-13T08:20:31.442Z,48.85
2023-02-13T08:23:04.472Z,48.55
2023-02-13T08:25:34.451Z,49.16
2023-02-13T08:28:03.181Z,48.48
2023-02-13T08:30:31.379Z,48.24
2023-02-13T08:32:59.552Z,50.82
2023-02-13T08:35:29.867Z,53.31
2023-02-13T08:37:58.302Z,55.63
2023-02-13T08:40:26.899Z,56.79
2023-02-13T08:43:01.225Z,56.85
2023-02-13T08:45:29.991Z,56.72
2023-02-13T08:47:59.341Z,56.67
2023-02-13T08:50:28.730Z,56.45
2023-02-13T08:52:56.915Z,54.82
2023-02-13T08:55:25.000Z,54.44
2023-02-13T08:57:53.110Z,54.78
2023-02-13T09:00:23.257Z,54.60
2023-02-13T09:02:51.425Z,54.69
2023-02-13T09:05:20.939Z,55.33
2023-02-13T09:07:49.110Z,54.37
2023-02-13T09:10:17.334Z,55.76
2023-02-13T09:12:46.509Z,55.92
2023-02-13T09:15:14.550Z,55.28
2023-02-13T09:17:44.036Z,55.24
2023-02-13T09:20:14.084Z,55.08
2023-02-13T09:22:42.296Z,55.15
2023-02-13T09:25:11.010Z,55.16
2023-02-13T09:27:39.436Z,55.57
2023-02-13T09:30:09.191Z,55.79
2023-02-13T09:32:37.672Z,56.08
2023-02-13T09:35:07.682Z,55.92
2023-02-13T09:37:35.833Z,56.23
2023-02-13T09:40:04.347Z,56.11
2023-02-13T09:42:38.476Z,55.38
2023-02-13T09:45:09.460Z,54.52
2023-02-13T09:47:40.929Z,54.04
2023-02-13T09:50:15.880Z,54.82
2023-02-13T09:52:46.930Z,54.56
2023-02-13T09:55:17.882Z,54.10
2023-02-13T09:57:50.421Z,54.32
2023-02-13T10:00:24.023Z,54.16
2023-02-13T10:03:17.560Z,54.89
2023-02-13T10:05:57.960Z,54.88
2023-02-13T10:08:37.478Z,54.98
2023-02-13T10:11:18.602Z,55.05
2023-02-13T10:13:58.437Z,54.58
2023-02-13T10:16:30.410Z,54.45
2023-02-13T10:19:06.793Z,53.99
2023-02-13T10:21:42.844Z,53.65
2023-02-13T10:24:15.565Z,53.55
2023-02-13T10:26:47.485Z,53.13
2023-02-13T10:29:41.028Z,53.54
2023-02-13T10:32:14.308Z,53.90
2023-02-13T10:34:46.259Z,53.46
2023-02-13T10:37:18.176Z,53.76
2023-02-13T10:39:48.976Z,53.09
2023-02-13T10:42:24.061Z,52.78
2023-02-13T10:45:01.855Z,51.95
2023-02-13T10:47:47.983Z,51.87
2023-02-13T10:50:27.795Z,51.85
2023-02-13T10:53:13.112Z,51.87
2023-02-13T10:56:05.912Z,53.23
2023-02-13T10:58:48.507Z,53.31
2023-02-13T11:01:23.547Z,52.74
2023-02-13T11:04:05.096Z,53.23
2023-02-13T11:06:35.936Z,52.83
2023-02-13T11:09:08.609Z,51.93
2023-02-13T11:11:38.451Z,52.36
2023-02-13T11:14:12.221Z,52.07
2023-02-13T11:16:44.317Z,51.80
2023-02-13T11:19:25.612Z,53.01
2023-02-13T11:22:00.555Z,55.80
2023-02-13T11:24:31.650Z,57.50
2023-02-13T11:27:02.801Z,58.07
2023-02-13T11:29:32.912Z,58.25
2023-02-13T11:32:12.754Z,58.21
2023-02-13T11:34:41.088Z,58.22
2023-02-13T11:37:18.681Z,57.79
2023-02-13T11:39:51.451Z,58.23
2023-02-13T11:42:26.098Z,57.93
2023-02-13T11:44:56.979Z,58.18
2023-02-13T11:47:34.430Z,59.88
2023-02-13T11:50:02.748Z,61.45
2023-02-13T11:52:34.103Z,62.69
2023-02-13T11:55:05.754Z,61.45
2023-02-13T11:57:35.808Z,61.17
2023-02-13T12:00:31.123Z,61.50
2023-02-13T12:02:59.447Z,62.67
2023-02-13T12:05:29.418Z,62.36
2023-02-13T12:08:01.668Z,61.69
2023-02-13T12:10:33.653Z,62.05
2023-02-13T12:13:13.822Z,61.32
2023-02-13T12:15:42.854Z,62.34
2023-02-13T12:18:21.023Z,62.70
2023-02-13T12:20:59.079Z,63.68
2023-02-13T12:23:40.561Z,64.85
2023-02-13T12:26:25.141Z,65.84
2023-02-13T12:29:34.246Z,64.99
2023-02-13T12:32:12.198Z,63.36
2023-02-13T12:35:09.270Z,61.99
2023-02-13T12:38:01.977Z,59.78
2023-02-13T12:40:48.283Z,57.78
2023-02-13T12:43:57.627Z,56.65
2023-02-13T12:46:33.893Z,57.66
2023-02-13T12:49:14.828Z,59.67
2023-02-13T12:51:51.776Z,59.48
2023-02-13T12:54:34.531Z,59.86
2023-02-13T12:57:31.029Z,59.33
2023-02-13T13:00:16.993Z,58.76
2023-02-13T13:02:57.482Z,58.15
2023-02-13T13:05:32.957Z,57.50
2023-02-13T13:08:22.768Z,58.83
2023-02-13T13:11:05.441Z,59.03
2023-02-13T13:13:47.190Z,56.49
2023-02-13T13:16:21.526Z,57.05
2023-02-13T13:19:03.993Z,58.66
2023-02-13T13:21:40.896Z,57.32
2023-02-13T13:24:27.475Z,56.46
2023-02-13T13:26:57.779Z,55.80
2023-02-13T13:29:30.904Z,56.75
2023-02-13T13:32:03.178Z,57.80
2023-02-13T13:34:35.841Z,54.19
2023-02-13T13:37:10.668Z,54.21
2023-02-13T13:39:50.245Z,53.30
2023-02-13T13:42:22.409Z,52.26
2023-02-13T13:45:19.091Z,53.86
2023-02-13T13:47:59.911Z,53.07
2023-02-13T13:50:32.824Z,53.35
2023-02-13T13:53:11.885Z,52.44
2023-02-13T13:56:02.826Z,53.24
2023-02-13T13:58:36.763Z,53.28
2023-02-13T14:01:26.389Z,53.34
2023-02-13T14:03:56.246Z,52.86
2023-02-13T14:06:27.819Z,52.33
2023-02-13T14:09:02.418Z,54.21
2023-02-13T14:11:37.437Z,53.90
2023-02-13T14:14:45.514Z,55.08
2023-02-13T14:17:17.404Z,55.59
2023-02-13T14:19:51.228Z,54.96
2023-02-13T14:22:37.860Z,55.14
2023-02-13T14:25:07.869Z,55.00
2023-02-13T14:27:39.098Z,54.20
2023-02-13T14:30:28.032Z,54.22
2023-02-13T14:32:56.897Z,56.30
2023-02-13T14:35:27.688Z,58.31
2023-02-13T14:37:59.376Z,59.27
2023-02-13T14:40:47.331Z,59.28
2023-02-13T14:43:30.910Z,58.89
2023-02-13T14:46:08.162Z,58.29
2023-02-13T14:48:44.936Z,59.45
2023-02-13T14:51:28.769Z,60.44
2023-02-13T14:54:04.947Z,59.07
2023-02-13T14:56:33.909Z,58.30
2023-02-13T14:59:12.525Z,59.22
2023-02-13T15:01:51.201Z,61.05
2023-02-13T15:04:27.344Z,62.24
2023-02-13T15:06:57.041Z,62.82
2023-02-13T15:09:34.026Z,61.72
2023-02-13T15:12:02.466Z,62.51
2023-02-13T15:14:35.185Z,63.13
2023-02-13T15:17:07.931Z,63.02
2023-02-13T15:19:39.171Z,63.93
2023-02-13T15:22:08.499Z,62.98
2023-02-13T15:24:47.296Z,62.94
2023-02-13T15:27:21.194Z,63.68
2023-02-13T15:29:57.349Z,63.80
2023-02-13T15:32:41.810Z,63.82
2023-02-13T15:35:24.402Z,67.06
2023-02-13T15:37:52.552Z,68.75
2023-02-13T15:40:31.127Z,69.74
2023-02-13T15:43:00.812Z,68.66
2023-02-13T15:45:30.784Z,68.75
2023-02-13T15:47:59.189Z,68.44
2023-02-13T15:50:32.384Z,68.85
2023-02-13T15:53:03.110Z,69.50
2023-02-13T15:55:36.621Z,69.02
2023-02-13T15:58:05.400Z,69.58
2023-02-13T16:00:36.561Z,70.22
2023-02-13T16:03:07.427Z,70.92
2023-02-13T16:05:41.403Z,71.06
2023-02-13T16:08:31.370Z,69.21
2023-02-13T16:11:35.168Z,70.65
2023-02-13T16:14:09.353Z,71.10
2023-02-13T16:16:46.380Z,71.75
2023-02-13T16:19:29.857Z,73.26
2023-02-13T16:22:01.398Z,73.78
2023-02-13T16:24:30.565Z,76.10
2023-02-13T16:26:58.891Z,75.98
2023-02-13T16:29:28.856Z,77.66
2023-02-13T16:32:07.208Z,76.89
2023-02-13T16:34:35.421Z,75.65
2023-02-13T16:37:03.561Z,77.02
2023-02-13T16:39:34.209Z,77.01
2023-02-13T16:42:02.728Z,78.44
2023-02-13T16:44:33.475Z,77.74
2023-02-13T16:47:02.758Z,76.94
2023-02-13T16:49:33.674Z,79.22
2023-02-13T16:52:12.439Z,78.17
2023-02-13T16:54:50.104Z,80.00
2023-02-13T16:57:26.239Z,81.67
2023-02-13T17:00:08.952Z,79.96
2023-02-13T17:02:38.252Z,81.10
2023-02-13T17:05:22.571Z,80.87
2023-02-13T17:07:53.177Z,80.46
2023-02-13T17:10:24.527Z,80.68
2023-02-13T17:12:53.225Z,80.65
2023-02-13T17:15:24.485Z,80.63
2023-02-13T17:17:53.732Z,81.24
2023-02-13T17:20:23.641Z,81.29
2023-02-13T17:22:53.638Z,80.97
2023-02-13T17:25:24.086Z,81.32
2023-02-13T17:27:54.757Z,81.27
2023-02-13T17:30:26.265Z,80.34
2023-02-13T17:32:59.711Z,81.21
2023-02-13T17:35:27.946Z,81.57
2023-02-13T17:37:56.156Z,81.23
2023-02-13T17:40:28.600Z,82.78
2023-02-13T17:42:58.099Z,83.42
2023-02-13T17:45:29.987Z,83.50
2023-02-13T17:47:58.850Z,84.01
2023-02-13T17:50:27.677Z,84.24
2023-02-13T17:52:56.551Z,85.26
2023-02-13T17:55:26.966Z,85.43
2023-02-13T17:57:57.708Z,84.63
2023-02-13T18:00:29.651Z,83.69
2023-02-13T18:02:59.437Z,84.74
2023-02-13T18:05:28.910Z,83.25
2023-02-13T18:07:57.211Z,85.33
2023-02-13T18:10:27.660Z,86.88
2023-02-13T18:12:58.433Z,86.75
2023-02-13T18:15:29.877Z,87.21
2023-02-13T18:17:59.021Z,85.47
2023-02-13T18:20:27.240Z,86.02
2023-02-13T18:22:55.465Z,86.12
2023-02-13T18:25:23.764Z,86.00
2023-02-13T18:27:52.091Z,85.63
2023-02-13T18:30:21.564Z,85.28
2023-02-13T18:32:55.005Z,84.59
2023-02-13T18:35:24.363Z,84.92
2023-02-13T18:37:52.704Z,84.41
2023-02-13T18:40:21.019Z,83.69
2023-02-13T18:42:51.147Z,83.85
2023-02-13T18:45:19.464Z,83.70
2023-02-13T18:47:47.635Z,82.46
2023-02-13T18:50:17.300Z,82.58
2023-02-13T18:52:46.767Z,82.80
2023-02-13T18:55:14.851Z,83.22
2023-02-13T18:57:45.543Z,83.94
2023-02-13T19:00:16.646Z,83.64
2023-02-13T19:02:44.815Z,83.59
2023-02-13T19:05:13.245Z,84.01
2023-02-13T19:07:42.779Z,85.29
2023-02-13T19:10:11.578Z,87.31
2023-02-13T19:12:39.915Z,86.62
2023-02-13T19:15:08.851Z,86.63
2023-02-13T19:17:38.538Z,86.65
2023-02-13T19:20:08.411Z,87.52
2023-02-13T19:22:36.833Z,87.95
2023-02-13T19:25:07.069Z,86.94
2023-02-13T19:27:37.848Z,85.93
2023-02-13T19:30:09.777Z,86.55
2023-02-13T19:32:37.927Z,85.61
2023-02-13T19:35:06.798Z,86.78
2023-02-13T19:37:43.420Z,88.48
2023-02-13T19:40:15.104Z,86.71
2023-02-13T19:42:43.287Z,87.18
2023-02-13T19:45:12.216Z,86.78
2023-02-13T19:47:40.482Z,87.00
2023-02-13T19:50:09.977Z,87.12
2023-02-13T19:52:38.175Z,88.75
2023-02-13T19:55:06.744Z,89.28
2023-02-13T19:57:36.398Z,89.33
2023-02-13T20:00:05.094Z,89.29
2023-02-13T20:02:33.177Z,90.20
2023-02-13T20:05:01.402Z,90.83
2023-02-13T20:07:29.592Z,91.13
2023-02-13T20:09:57.756Z,91.50
2023-02-13T20:12:25.912Z,90.26
2023-02-13T20:14:57.066Z,90.66
2023-02-13T20:17:25.482Z,91.55
2023-02-13T20:19:54.458Z,91.73
2023-02-13T20:22:22.799Z,90.00
2023-02-13T20:24:51.089Z,89.95
2023-02-13T20:27:19.297Z,89.22
2023-02-13T20:29:47.614Z,89.27
2023-02-13T20:32:17.285Z,89.99
2023-02-13T20:34:58.990Z,89.86
2023-02-13T20:37:28.687Z,90.08
2023-02-13T20:39:56.812Z,90.99
2023-02-13T20:42:24.970Z,91.42
2023-02-13T20:44:54.903Z,91.56
2023-02-13T20:47:24.434Z,91.81
2023-02-13T20:49:52.683Z,92.37
2023-02-13T20:52:25.157Z,92.29
2023-02-13T20:54:54.630Z,90.86
2023-02-13T20:57:23.702Z,91.03
2023-02-13T20:59:51.886Z,91.27
2023-02-13T21:02:21.027Z,90.91
2023-02-13T21:04:50.656Z,90.93
2023-02-13T21:07:18.805Z,90.34
2023-02-13T21:09:46.916Z,89.37
2023-02-13T21:12:15.197Z,89.91
2023-02-13T21:14:43.381Z,90.66
2023-02-13T21:17:11.511Z,91.27
2023-02-13T21:19:40.470Z,92.91
2023-02-13T21:22:12.915Z,93.37
2023-02-13T21:24:42.387Z,93.73
2023-02-13T21:27:11.930Z,93.63
2023-02-13T21:29:40.157Z,94.72
2023-02-13T21:32:08.370Z,95.66
2023-02-13T21:34:36.585Z,96.20
2023-02-13T21:37:04.797Z,95.78
2023-02-13T21:39:34.499Z,92.80
2023-02-13T21:42:04.605Z,92.91
2023-02-13T21:44:33.584Z,91.98
2023-02-13T21:47:01.810Z,95.92
2023-02-13T21:49:30.002Z,94.01
2023-02-13T21:51:58.184Z,97.25
2023-02-13T21:54:26.436Z,96.73
2023-02-13T21:56:55.935Z,97.04
2023-02-13T21:59:24.171Z,98.17
2023-02-13T22:01:52.722Z,99.81
2023-02-13T22:04:21.330Z,100.00
2023-02-13T22:06:51.273Z,99.37
2023-02-13T22:09:21.209Z,98.76
2023-02-13T22:11:51.697Z,99.36
2023-02-13T22:14:22.490Z,99.51
2023-02-13T22:16:52.657Z,99.24
2023-02-13T22:19:21.468Z,99.97
2023-02-13T22:21:49.711Z,99.31
2023-02-13T22:24:17.861Z,98.49
2023-02-13T22:26:46.585Z,97.62
2023-02-13T22:29:16.501Z,97.11
2023-02-13T22:31:46.206Z,97.26
2023-02-13T22:34:14.834Z,96.40
2023-02-13T22:36:43.648Z,97.12
2023-02-13T22:39:14.244Z,98.50
2023-02-13T22:41:45.920Z,99.32
2023-02-13T22:44:14.119Z,100.00
2023-02-13T22:46:42.409Z,100.00
2023-02-13T22:49:12.281Z,100.00
2023-02-13T22:51:40.465Z,100.00
2023-02-13T22:54:08.738Z,100.00
2023-02-13T22:56:36.838Z,100.00
2023-02-13T22:59:05.111Z,100.00
2023-02-13T23:01:33.299Z,100.00
2023-02-13T23:04:01.434Z,100.00
2023-02-13T23:06:31.024Z,100.00
2023-02-13T23:08:59.191Z,100.00
2023-02-13T23:11:46.641Z,100.00
2023-02-13T23:14:15.225Z,100.00
2023-02-13T23:17:01.837Z,100.00
2023-02-13T23:19:30.265Z,100.00
2023-02-13T23:22:00.341Z,100.00
2023-02-13T23:24:28.579Z,100.00
2023-02-13T23:26:56.784Z,100.00
2023-02-13T23:29:25.247Z,100.00
2023-02-13T23:31:53.520Z,100.00
2023-02-13T23:34:22.009Z,100.00
2023-02-13T23:36:50.117Z,100.00
2023-02-13T23:39:20.064Z,100.00
2023-02-13T23:41:48.119Z,100.00
2023-02-13T23:44:17.284Z,100.00
2023-02-13T23:46:45.507Z,100.00
2023-02-13T23:49:13.739Z,100.00
2023-02-13T23:51:41.942Z,100.00
2023-02-13T23:54:10.011Z,100.00
2023-02-13T23:56:39.549Z,100.00
2023-02-13T23:59:07.960Z,100.00
